EDSB

Baden Airpark

Airport
ICAO code
EDSB
IATA Code
FKB
Summary
ICAO Region
EUR
ICAO Territory
Location

Rheinmünster, Baden-Wurttemberg

Serving
Baden Baden and Karlsruhe
Elevation
408 ft
Coordinates
48° 46' 41" N , 8° 5' 16" E
KCC
Metar
Observation
EDSB 090620Z 00000KT CAVOK M07/M08 Q1033
Station
Karlsruhe, Baden Wurttemberg
Date/Time
2023-02-09 06:20:00
Wind direction
Wind speed
00 kts
Lowest cloud amount
clouds and visibility OK
Temperature
-7°C
Dew point
-8°C
Humidity
92%
QNH
1033 hPa
Weather condition
n/a

Description

International airport serving Baden-Baden and Karlsruhe, Germany.

Climatology

Temperate Marine climate/Oceanic climate (Köppen climate classification Cfb) - Moderately cool summer and comparatively warm winter.

Runways

Designator Length Width Surface Rops
3/21 2983 45 ASP Yes/Yes

Airport map

Aerial View

SKYbrary Partners:

Safety knowledge contributed by: